sensor_id;sensor_type;location;lat;lon;timestamp;pressure;altitude;pressure_sealevel;temperature;humidity
61786;BME280;47692;53.714;11.372;2022-11-15T00:00:20;100746.41;;;4.75;100.00
61786;BME280;47692;53.714;11.372;2022-11-15T00:02:45;100732.59;;;4.78;100.00
61786;BME280;47692;53.714;11.372;2022-11-15T00:05:10;100731.75;;;4.74;100.00
61786;BME280;47692;53.714;11.372;2022-11-15T00:07:36;100739.50;;;4.74;100.00
61786;BME280;47692;53.714;11.372;2022-11-15T00:10:01;100745.53;;;4.70;100.00
61786;BME280;47692;53.714;11.372;2022-11-15T00:12:27;100730.00;;;4.64;100.00
61786;BME280;47692;53.714;11.372;2022-11-15T00:14:53;100729.97;;;4.61;100.00
61786;BME280;47692;53.714;11.372;2022-11-15T00:17:18;100736.88;;;4.65;100.00
61786;BME280;47692;53.714;11.372;2022-11-15T00:19:43;100740.34;;;4.67;100.00
61786;BME280;47692;53.714;11.372;2022-11-15T00:22:09;100737.75;;;4.64;100.00
61786;BME280;47692;53.714;11.372;2022-11-15T00:24:34;100731.69;;;4.65;100.00
61786;BME280;47692;53.714;11.372;2022-11-15T00:26:59;100733.44;;;4.60;100.00
61786;BME280;47692;53.714;11.372;2022-11-15T00:29:25;100736.88;;;4.56;100.00
61786;BME280;47692;53.714;11.372;2022-11-15T00:31:50;100726.50;;;4.52;100.00
61786;BME280;47692;53.714;11.372;2022-11-15T00:34:15;100724.81;;;4.58;100.00
61786;BME280;47692;53.714;11.372;2022-11-15T00:36:40;100719.63;;;4.51;100.00
61786;BME280;47692;53.714;11.372;2022-11-15T00:39:06;100717.91;;;4.53;100.00
61786;BME280;47692;53.714;11.372;2022-11-15T00:41:31;100724.78;;;4.48;100.00
61786;BME280;47692;53.714;11.372;2022-11-15T00:43:57;100716.16;;;4.52;100.00
61786;BME280;47692;53.714;11.372;2022-11-15T00:46:22;100707.56;;;4.53;100.00
61786;BME280;47692;53.714;11.372;2022-11-15T00:48:47;100698.94;;;4.48;100.00
61786;BME280;47692;53.714;11.372;2022-11-15T00:51:13;100697.19;;;4.47;100.00
61786;BME280;47692;53.714;11.372;2022-11-15T00:53:38;100700.66;;;4.52;100.00
61786;BME280;47692;53.714;11.372;2022-11-15T00:56:04;100704.13;;;4.51;100.00
61786;BME280;47692;53.714;11.372;2022-11-15T00:58:29;100692.03;;;4.53;100.00
61786;BME280;47692;53.714;11.372;2022-11-15T01:00:54;100692.06;;;4.60;100.00
61786;BME280;47692;53.714;11.372;2022-11-15T01:03:20;100683.44;;;4.58;100.00
61786;BME280;47692;53.714;11.372;2022-11-15T01:05:45;100680.00;;;4.62;100.00
61786;BME280;47692;53.714;11.372;2022-11-15T01:08:15;100680.88;;;4.58;100.00
61786;BME280;47692;53.714;11.372;2022-11-15T01:10:41;100684.28;;;4.60;100.00
61786;BME280;47692;53.714;11.372;2022-11-15T01:13:06;100684.31;;;4.63;100.00
61786;BME280;47692;53.714;11.372;2022-11-15T01:15:31;100677.41;;;4.68;100.00
61786;BME280;47692;53.714;11.372;2022-11-15T01:17:57;100674.81;;;4.71;100.00
61786;BME280;47692;53.714;11.372;2022-11-15T01:20:22;100673.13;;;4.76;100.00
61786;BME280;47692;53.714;11.372;2022-11-15T01:22:47;100667.06;;;4.77;100.00
61786;BME280;47692;53.714;11.372;2022-11-15T01:25:13;100662.75;;;4.79;100.00
61786;BME280;47692;53.714;11.372;2022-11-15T01:27:38;100667.06;;;4.82;100.00
61786;BME280;47692;53.714;11.372;2022-11-15T01:30:04;100667.94;;;4.82;100.00
61786;BME280;47692;53.714;11.372;2022-11-15T01:32:30;100671.41;;;4.81;100.00
61786;BME280;47692;53.714;11.372;2022-11-15T01:34:55;100662.78;;;4.82;100.00
61786;BME280;47692;53.714;11.372;2022-11-15T01:37:20;100671.38;;;4.84;100.00
61786;BME280;47692;53.714;11.372;2022-11-15T01:39:45;100667.06;;;4.83;100.00
61786;BME280;47692;53.714;11.372;2022-11-15T01:42:14;100667.94;;;4.82;100.00
61786;BME280;47692;53.714;11.372;2022-11-15T01:44:45;100671.38;;;4.84;100.00
61786;BME280;47692;53.714;11.372;2022-11-15T01:47:15;100655.84;;;4.80;100.00
61786;BME280;47692;53.714;11.372;2022-11-15T01:49:49;100656.72;;;4.83;100.00
61786;BME280;47692;53.714;11.372;2022-11-15T01:52:19;100648.97;;;4.80;100.00
61786;BME280;47692;53.714;11.372;2022-11-15T01:54:45;100648.09;;;4.80;100.00
61786;BME280;47692;53.714;11.372;2022-11-15T01:57:11;100653.28;;;4.77;100.00
61786;BME280;47692;53.714;11.372;2022-11-15T01:59:40;100645.50;;;4.78;100.00
61786;BME280;47692;53.714;11.372;2022-11-15T02:02:07;100650.69;;;4.81;100.00
61786;BME280;47692;53.714;11.372;2022-11-15T02:04:36;100642.06;;;4.84;100.00
61786;BME280;47692;53.714;11.372;2022-11-15T02:07:05;100643.78;;;4.74;100.00
61786;BME280;47692;53.714;11.372;2022-11-15T02:09:31;100646.38;;;4.77;100.00
61786;BME280;47692;53.714;11.372;2022-11-15T02:11:57;100639.50;;;4.72;100.00
61786;BME280;47692;53.714;11.372;2022-11-15T02:14:25;100637.75;;;4.69;100.00
61786;BME280;47692;53.714;11.372;2022-11-15T02:17:38;100642.06;;;4.72;100.00
61786;BME280;47692;53.714;11.372;2022-11-15T02:22:46;100633.44;;;4.68;100.00
61786;BME280;47692;53.714;11.372;2022-11-15T02:25:28;100633.44;;;4.71;100.00
61786;BME280;47692;53.714;11.372;2022-11-15T02:28:33;100630.84;;;4.65;100.00
61786;BME280;47692;53.714;11.372;2022-11-15T02:31:05;100623.09;;;4.62;100.00
61786;BME280;47692;53.714;11.372;2022-11-15T02:33:49;100628.25;;;4.65;100.00
61786;BME280;47692;53.714;11.372;2022-11-15T02:39:39;100628.28;;;4.62;100.00
61786;BME280;47692;53.714;11.372;2022-11-15T02:42:17;100624.81;;;4.57;100.00
61786;BME280;47692;53.714;11.372;2022-11-15T02:45:06;100623.94;;;4.50;100.00
61786;BME280;47692;53.714;11.372;2022-11-15T02:47:39;100632.59;;;4.43;100.00
61786;BME280;47692;53.714;11.372;2022-11-15T02:50:09;100631.69;;;4.42;100.00
61786;BME280;47692;53.714;11.372;2022-11-15T02:52:35;100626.53;;;4.42;100.00
61786;BME280;47692;53.714;11.372;2022-11-15T02:55:01;100621.38;;;4.48;100.00
61786;BME280;47692;53.714;11.372;2022-11-15T03:00:15;100628.25;;;4.43;100.00
61786;BME280;47692;53.714;11.372;2022-11-15T03:13:45;100635.16;;;4.44;100.00
61786;BME280;47692;53.714;11.372;2022-11-15T03:18:52;100628.25;;;4.37;100.00
61786;BME280;47692;53.714;11.372;2022-11-15T03:21:21;100632.56;;;4.40;100.00
61786;BME280;47692;53.714;11.372;2022-11-15T03:23:48;100628.28;;;4.40;100.00
61786;BME280;47692;53.714;11.372;2022-11-15T03:26:18;100626.53;;;4.36;100.00
61786;BME280;47692;53.714;11.372;2022-11-15T03:29:08;100628.25;;;4.31;100.00
61786;BME280;47692;53.714;11.372;2022-11-15T03:31:39;100627.41;;;4.38;100.00
61786;BME280;47692;53.714;11.372;2022-11-15T03:34:36;100619.63;;;4.29;100.00
61786;BME280;47692;53.714;11.372;2022-11-15T03:37:03;100623.91;;;4.24;100.00
61786;BME280;47692;53.714;11.372;2022-11-15T03:39:29;100622.19;;;4.23;100.00
61786;BME280;47692;53.714;11.372;2022-11-15T03:44:52;100627.38;;;4.18;100.00
61786;BME280;47692;53.714;11.372;2022-11-15T03:47:20;100624.78;;;4.19;100.00
61786;BME280;47692;53.714;11.372;2022-11-15T03:49:55;100628.22;;;4.15;100.00
61786;BME280;47692;53.714;11.372;2022-11-15T03:52:23;100628.19;;;4.12;100.00
61786;BME280;47692;53.714;11.372;2022-11-15T03:54:54;100626.47;;;4.08;100.00
61786;BME280;47692;53.714;11.372;2022-11-15T03:57:19;100633.34;;;4.00;100.00
61786;BME280;47692;53.714;11.372;2022-11-15T03:59:45;100635.03;;;3.85;100.00
61786;BME280;47692;53.714;11.372;2022-11-15T04:02:10;100640.09;;;3.64;100.00
61786;BME280;47692;53.714;11.372;2022-11-15T04:04:36;100634.94;;;3.62;100.00
61786;BME280;47692;53.714;11.372;2022-11-15T04:07:01;100631.50;;;3.68;100.00
61786;BME280;47692;53.714;11.372;2022-11-15T04:09:26;100634.97;;;3.67;100.00
61786;BME280;47692;53.714;11.372;2022-11-15T04:11:51;100636.66;;;3.68;100.00
61786;BME280;47692;53.714;11.372;2022-11-15T04:14:17;100634.06;;;3.68;100.00
61786;BME280;47692;53.714;11.372;2022-11-15T04:16:42;100632.34;;;3.65;100.00
61786;BME280;47692;53.714;11.372;2022-11-15T04:19:07;100633.22;;;3.69;100.00
61786;BME280;47692;53.714;11.372;2022-11-15T04:21:51;100622.03;;;3.71;100.00
61786;BME280;47692;53.714;11.372;2022-11-15T04:24:35;100614.34;;;3.79;100.00
61786;BME280;47692;53.714;11.372;2022-11-15T04:27:01;100621.25;;;3.83;100.00
61786;BME280;47692;53.714;11.372;2022-11-15T04:29:26;100620.38;;;3.86;100.00
61786;BME280;47692;53.714;11.372;2022-11-15T04:32:05;100623.81;;;3.85;100.00
61786;BME280;47692;53.714;11.372;2022-11-15T04:34:31;100622.97;;;3.84;100.00
61786;BME280;47692;53.714;11.372;2022-11-15T04:36:57;100608.31;;;3.85;100.00
61786;BME280;47692;53.714;11.372;2022-11-15T04:39:38;100601.47;;;3.85;100.00
61786;BME280;47692;53.714;11.372;2022-11-15T04:42:03;100600.53;;;3.74;100.00
61786;BME280;47692;53.714;11.372;2022-11-15T04:44:29;100599.69;;;3.80;100.00
61786;BME280;47692;53.714;11.372;2022-11-15T04:46:54;100592.81;;;3.80;100.00
61786;BME280;47692;53.714;11.372;2022-11-15T04:49:19;100599.69;;;3.80;100.00
61786;BME280;47692;53.714;11.372;2022-11-15T04:51:45;100598.81;;;3.76;100.00
61786;BME280;47692;53.714;11.372;2022-11-15T04:54:10;100602.31;;;3.84;100.00
61786;BME280;47692;53.714;11.372;2022-11-15T04:56:36;100610.06;;;3.84;100.00
61786;BME280;47692;53.714;11.372;2022-11-15T04:59:01;100611.75;;;3.81;100.00
61786;BME280;47692;53.714;11.372;2022-11-15T05:01:26;100607.44;;;3.78;100.00
61786;BME280;47692;53.714;11.372;2022-11-15T05:03:52;100604.00;;;3.73;100.00
61786;BME280;47692;53.714;11.372;2022-11-15T05:06:35;100606.59;;;3.73;100.00
61786;BME280;47692;53.714;11.372;2022-11-15T05:09:01;100597.97;;;3.80;100.00
61786;BME280;47692;53.714;11.372;2022-11-15T05:11:26;100591.09;;;3.76;100.00
61786;BME280;47692;53.714;11.372;2022-11-15T05:13:54;100588.53;;;3.79;100.00
61786;BME280;47692;53.714;11.372;2022-11-15T05:16:20;100597.13;;;3.87;100.00
61786;BME280;47692;53.714;11.372;2022-11-15T05:18:45;100598.88;;;3.88;100.00
61786;BME280;47692;53.714;11.372;2022-11-15T05:21:13;100598.88;;;3.88;100.00
61786;BME280;47692;53.714;11.372;2022-11-15T05:23:40;100593.72;;;3.92;100.00
61786;BME280;47692;53.714;11.372;2022-11-15T05:26:06;100603.19;;;3.97;100.00
61786;BME280;47692;53.714;11.372;2022-11-15T05:28:32;100608.38;;;3.96;100.00
61786;BME280;47692;53.714;11.372;2022-11-15T05:31:06;100593.72;;;3.95;100.00
61786;BME280;47692;53.714;11.372;2022-11-15T05:33:33;100596.31;;;3.99;100.00
61786;BME280;47692;53.714;11.372;2022-11-15T05:36:10;100606.66;;;4.06;100.00
61786;BME280;47692;53.714;11.372;2022-11-15T05:38:37;100607.53;;;4.12;100.00
61786;BME280;47692;53.714;11.372;2022-11-15T05:41:03;100607.56;;;4.15;100.00
61786;BME280;47692;53.714;11.372;2022-11-15T05:43:31;100611.00;;;4.20;100.00
61786;BME280;47692;53.714;11.372;2022-11-15T05:45:58;100606.72;;;4.24;100.00
61786;BME280;47692;53.714;11.372;2022-11-15T05:48:25;100612.75;;;4.28;100.00
61786;BME280;47692;53.714;11.372;2022-11-15T05:50:51;100617.91;;;4.43;100.00
61786;BME280;47692;53.714;11.372;2022-11-15T05:53:19;100618.78;;;4.53;100.00
61786;BME280;47692;53.714;11.372;2022-11-15T05:55:45;100619.66;;;4.57;100.00
61786;BME280;47692;53.714;11.372;2022-11-15T05:58:11;100622.25;;;4.61;100.00
61786;BME280;47692;53.714;11.372;2022-11-15T06:00:36;100607.56;;;4.59;100.00
61786;BME280;47692;53.714;11.372;2022-11-15T06:03:02;100611.03;;;4.61;100.00
61786;BME280;47692;53.714;11.372;2022-11-15T06:05:27;100606.72;;;4.69;100.00
61786;BME280;47692;53.714;11.372;2022-11-15T06:07:57;100606.72;;;4.75;100.00
61786;BME280;47692;53.714;11.372;2022-11-15T06:10:22;100610.19;;;4.79;100.00
61786;BME280;47692;53.714;11.372;2022-11-15T06:12:59;100615.34;;;4.76;100.00
61786;BME280;47692;53.714;11.372;2022-11-15T06:15:24;100617.03;;;4.80;100.00
61786;BME280;47692;53.714;11.372;2022-11-15T06:17:50;100623.94;;;4.87;100.00
61786;BME280;47692;53.714;11.372;2022-11-15T06:20:15;100629.13;;;4.92;100.00
61786;BME280;47692;53.714;11.372;2022-11-15T06:22:40;100624.81;;;4.91;100.00
61786;BME280;47692;53.714;11.372;2022-11-15T06:25:06;100622.22;;;4.89;100.00
61786;BME280;47692;53.714;11.372;2022-11-15T06:27:31;100629.97;;;4.91;100.00
61786;BME280;47692;53.714;11.372;2022-11-15T06:29:57;100634.31;;;4.92;100.00
61786;BME280;47692;53.714;11.372;2022-11-15T06:32:22;100635.16;;;4.94;100.00
61786;BME280;47692;53.714;11.372;2022-11-15T06:34:47;100634.28;;;4.99;100.00
61786;BME280;47692;53.714;11.372;2022-11-15T06:37:12;100636.88;;;5.04;100.00
61786;BME280;47692;53.714;11.372;2022-11-15T06:39:38;100636.88;;;5.04;100.00
61786;BME280;47692;53.714;11.372;2022-11-15T06:42:03;100632.56;;;5.05;100.00
61786;BME280;47692;53.714;11.372;2022-11-15T06:44:28;100635.16;;;5.12;100.00
61786;BME280;47692;53.714;11.372;2022-11-15T06:46:54;100629.97;;;5.12;100.00
61786;BME280;47692;53.714;11.372;2022-11-15T06:49:19;100638.56;;;5.14;100.00
61786;BME280;47692;53.714;11.372;2022-11-15T06:51:44;100643.75;;;5.17;100.00
61786;BME280;47692;53.714;11.372;2022-11-15T06:54:10;100647.19;;;5.26;100.00
61786;BME280;47692;53.714;11.372;2022-11-15T06:56:35;100645.47;;;5.28;100.00
61786;BME280;47692;53.714;11.372;2022-11-15T06:59:00;100648.03;;;5.34;100.00
61786;BME280;47692;53.714;11.372;2022-11-15T07:01:26;100645.44;;;5.40;100.00
61786;BME280;47692;53.714;11.372;2022-11-15T07:03:51;100649.72;;;5.50;100.00
61786;BME280;47692;53.714;11.372;2022-11-15T07:06:16;100647.97;;;5.54;100.00
61786;BME280;47692;53.714;11.372;2022-11-15T07:08:42;100653.13;;;5.60;100.00
61786;BME280;47692;53.714;11.372;2022-11-15T07:11:07;100666.09;;;5.60;100.00
61786;BME280;47692;53.714;11.372;2022-11-15T07:13:34;100666.97;;;5.61;100.00
61786;BME280;47692;53.714;11.372;2022-11-15T07:16:05;100673.88;;;5.63;100.00
61786;BME280;47692;53.714;11.372;2022-11-15T07:18:34;100679.03;;;5.66;100.00
61786;BME280;47692;53.714;11.372;2022-11-15T07:21:01;100668.66;;;5.66;100.00
61786;BME280;47692;53.714;11.372;2022-11-15T07:23:27;100672.97;;;5.68;100.00
61786;BME280;47692;53.714;11.372;2022-11-15T07:25:52;100682.47;;;5.69;100.00
61786;BME280;47692;53.714;11.372;2022-11-15T07:28:17;100679.00;;;5.74;100.00
61786;BME280;47692;53.714;11.372;2022-11-15T07:30:43;100679.88;;;5.79;100.00
61786;BME280;47692;53.714;11.372;2022-11-15T07:33:08;100674.69;;;5.79;100.00
61786;BME280;47692;53.714;11.372;2022-11-15T07:35:33;100678.94;;;5.91;100.00
61786;BME280;47692;53.714;11.372;2022-11-15T07:38:01;100677.19;;;6.01;100.00
61786;BME280;47692;53.714;11.372;2022-11-15T07:40:28;100676.31;;;6.08;100.00
61786;BME280;47692;53.714;11.372;2022-11-15T07:43:05;100668.50;;;6.14;100.00
61786;BME280;47692;53.714;11.372;2022-11-15T07:45:32;100683.16;;;6.19;100.00
61786;BME280;47692;53.714;11.372;2022-11-15T07:47:59;100683.16;;;6.22;100.00
61786;BME280;47692;53.714;11.372;2022-11-15T07:50:25;100678.84;;;6.16;100.00
61786;BME280;47692;53.714;11.372;2022-11-15T07:52:58;100684.06;;;6.14;100.00
61786;BME280;47692;53.714;11.372;2022-11-15T07:55:25;100678.84;;;6.16;100.00
61786;BME280;47692;53.714;11.372;2022-11-15T07:57:51;100674.53;;;6.17;100.00
61786;BME280;47692;53.714;11.372;2022-11-15T08:00:17;100679.63;;;6.29;100.00
61786;BME280;47692;53.714;11.372;2022-11-15T08:02:42;100670.13;;;6.33;100.00
61786;BME280;47692;53.714;11.372;2022-11-15T08:05:08;100673.53;;;6.38;100.00
61786;BME280;47692;53.714;11.372;2022-11-15T08:07:33;100671.75;;;6.46;100.00
61786;BME280;47692;53.714;11.372;2022-11-15T08:09:59;100672.56;;;6.56;100.00
61786;BME280;47692;53.714;11.372;2022-11-15T08:12:29;100672.59;;;6.53;100.00
61786;BME280;47692;53.714;11.372;2022-11-15T08:14:55;100671.66;;;6.60;100.00
61786;BME280;47692;53.714;11.372;2022-11-15T08:17:24;100666.47;;;6.63;100.00
61786;BME280;47692;53.714;11.372;2022-11-15T08:19:50;100670.75;;;6.67;100.00
61786;BME280;47692;53.714;11.372;2022-11-15T08:22:16;100674.22;;;6.69;100.00
61786;BME280;47692;53.714;11.372;2022-11-15T08:24:41;100670.72;;;6.73;100.00
61786;BME280;47692;53.714;11.372;2022-11-15T08:27:07;100668.97;;;6.75;100.00
61786;BME280;47692;53.714;11.372;2022-11-15T08:29:43;100669.78;;;6.81;100.00
61786;BME280;47692;53.714;11.372;2022-11-15T08:32:09;100667.16;;;6.84;100.00
61786;BME280;47692;53.714;11.372;2022-11-15T08:34:35;100672.34;;;6.87;100.00
61786;BME280;47692;53.714;11.372;2022-11-15T08:37:00;100665.41;;;6.89;100.00
61786;BME280;47692;53.714;11.372;2022-11-15T08:39:26;100668.81;;;6.94;100.00
61786;BME280;47692;53.714;11.372;2022-11-15T08:41:51;100668.78;;;7.00;100.00
61786;BME280;47692;53.714;11.372;2022-11-15T08:44:16;100669.63;;;7.01;100.00
61786;BME280;47692;53.714;11.372;2022-11-15T08:46:42;100667.88;;;7.03;100.00
61786;BME280;47692;53.714;11.372;2022-11-15T08:49:07;100664.41;;;7.04;100.00
61786;BME280;47692;53.714;11.372;2022-11-15T08:51:32;100665.28;;;7.04;100.00
61786;BME280;47692;53.714;11.372;2022-11-15T08:53:58;100663.53;;;7.06;100.00
61786;BME280;47692;53.714;11.372;2022-11-15T08:56:23;100660.91;;;7.05;100.00
61786;BME280;47692;53.714;11.372;2022-11-15T08:58:48;100660.03;;;7.10;100.00
61786;BME280;47692;53.714;11.372;2022-11-15T09:01:18;100661.59;;;7.27;100.00
61786;BME280;47692;53.714;11.372;2022-11-15T09:03:44;100667.59;;;7.32;100.00
61786;BME280;47692;53.714;11.372;2022-11-15T09:06:09;100668.38;;;7.40;100.00
61786;BME280;47692;53.714;11.372;2022-11-15T09:08:35;100667.47;;;7.43;100.00
61786;BME280;47692;53.714;11.372;2022-11-15T09:11:04;100661.38;;;7.47;100.00
61786;BME280;47692;53.714;11.372;2022-11-15T09:13:30;100658.72;;;7.55;100.00
61786;BME280;47692;53.714;11.372;2022-11-15T09:15:59;100657.00;;;7.52;100.00
61786;BME280;47692;53.714;11.372;2022-11-15T09:18:25;100653.47;;;7.58;100.00
61786;BME280;47692;53.714;11.372;2022-11-15T09:20:55;100658.53;;;7.69;100.00
61786;BME280;47692;53.714;11.372;2022-11-15T09:23:21;100658.53;;;7.70;100.00
61786;BME280;47692;53.714;11.372;2022-11-15T09:25:47;100668.84;;;7.76;100.00
61786;BME280;47692;53.714;11.372;2022-11-15T09:28:12;100652.31;;;7.84;100.00
61786;BME280;47692;53.714;11.372;2022-11-15T09:30:38;100660.06;;;7.88;100.00
61786;BME280;47692;53.714;11.372;2022-11-15T09:33:08;100659.19;;;7.89;100.00
61786;BME280;47692;53.714;11.372;2022-11-15T09:35:33;100656.44;;;7.99;100.00
61786;BME280;47692;53.714;11.372;2022-11-15T09:37:58;100659.03;;;8.00;100.00
61786;BME280;47692;53.714;11.372;2022-11-15T09:40:24;100657.19;;;8.08;100.00
61786;BME280;47692;53.714;11.372;2022-11-15T09:45:54;100661.28;;;8.25;100.00
61786;BME280;47692;53.714;11.372;2022-11-15T09:51:03;100663.63;;;8.44;100.00
61786;BME280;47692;53.714;11.372;2022-11-15T09:53:45;100664.47;;;8.46;100.00
61786;BME280;47692;53.714;11.372;2022-11-15T09:56:21;100654.94;;;8.45;100.00
61786;BME280;47692;53.714;11.372;2022-11-15T10:01:53;100647.88;;;8.56;100.00
61786;BME280;47692;53.714;11.372;2022-11-15T10:04:22;100645.03;;;8.70;100.00
61786;BME280;47692;53.714;11.372;2022-11-15T10:06:56;100635.50;;;8.70;100.00
61786;BME280;47692;53.714;11.372;2022-11-15T10:09:27;100641.28;;;8.88;100.00
61786;BME280;47692;53.714;11.372;2022-11-15T10:11:54;100645.53;;;8.92;100.00
61786;BME280;47692;53.714;11.372;2022-11-15T10:14:23;100648.16;;;8.92;100.00
61786;BME280;47692;53.714;11.372;2022-11-15T10:20:11;100650.66;;;8.98;100.00
61786;BME280;47692;53.714;11.372;2022-11-15T10:23:01;100640.25;;;8.97;100.00
61786;BME280;47692;53.714;11.372;2022-11-15T10:25:29;100640.22;;;8.98;100.00
61786;BME280;47692;53.714;11.372;2022-11-15T10:28:00;100636.56;;;9.09;100.00
61786;BME280;47692;53.714;11.372;2022-11-15T10:30:38;100638.28;;;9.10;100.00
61786;BME280;47692;53.714;11.372;2022-11-15T10:33:20;100626.91;;;9.15;100.00
61786;BME280;47692;53.714;11.372;2022-11-15T10:35:48;100629.66;;;9.08;100.00
61786;BME280;47692;53.714;11.372;2022-11-15T10:38:13;100622.59;;;9.14;100.00
61786;BME280;47692;53.714;11.372;2022-11-15T10:40:40;100621.66;;;9.17;100.00
61786;BME280;47692;53.714;11.372;2022-11-15T10:45:35;100613.72;;;9.25;100.00
61786;BME280;47692;53.714;11.372;2022-11-15T10:50:42;100603.13;;;9.32;100.00
61786;BME280;47692;53.714;11.372;2022-11-15T10:55:46;100610.03;;;9.36;100.00
61786;BME280;47692;53.714;11.372;2022-11-15T10:58:39;100601.31;;;9.37;100.00
61786;BME280;47692;53.714;11.372;2022-11-15T11:01:19;100590.94;;;9.34;100.00
61786;BME280;47692;53.714;11.372;2022-11-15T11:03:58;100584.66;;;9.45;100.00
61786;BME280;47692;53.714;11.372;2022-11-15T11:06:25;100583.63;;;9.52;100.00
61786;BME280;47692;53.714;11.372;2022-11-15T11:08:59;100581.53;;;9.69;100.00
61786;BME280;47692;53.714;11.372;2022-11-15T11:11:26;100581.66;;;10.04;100.00
61786;BME280;47692;53.714;11.372;2022-11-15T11:14:13;100583.59;;;10.33;100.00
61786;BME280;47692;53.714;11.372;2022-11-15T11:16:48;100584.75;;;10.59;99.67
61786;BME280;47692;53.714;11.372;2022-11-15T11:22:09;100585.97;;;10.80;94.38
61786;BME280;47692;53.714;11.372;2022-11-15T11:24:45;100573.66;;;10.84;94.85
61786;BME280;47692;53.714;11.372;2022-11-15T11:30:16;100573.63;;;11.50;92.63
61786;BME280;47692;53.714;11.372;2022-11-15T11:33:06;100567.50;;;11.81;91.10
61786;BME280;47692;53.714;11.372;2022-11-15T11:41:41;100560.00;;;11.69;89.95
61786;BME280;47692;53.714;11.372;2022-11-15T11:44:33;100559.38;;;11.60;90.77
61786;BME280;47692;53.714;11.372;2022-11-15T11:47:10;100556.13;;;11.52;91.28
61786;BME280;47692;53.714;11.372;2022-11-15T11:49:50;100550.28;;;11.42;91.63
61786;BME280;47692;53.714;11.372;2022-11-15T11:52:38;100548.09;;;11.28;92.68
61786;BME280;47692;53.714;11.372;2022-11-15T11:58:32;100558.09;;;11.14;94.16
61786;BME280;47692;53.714;11.372;2022-11-15T12:03:43;100553.81;;;11.10;94.65
61786;BME280;47692;53.714;11.372;2022-11-15T12:06:33;100548.19;;;11.25;94.55
61786;BME280;47692;53.714;11.372;2022-11-15T12:09:11;100542.78;;;11.31;94.40
61786;BME280;47692;53.714;11.372;2022-11-15T12:14:38;100533.47;;;11.51;93.20
61786;BME280;47692;53.714;11.372;2022-11-15T12:17:10;100535.59;;;11.68;92.50
61786;BME280;47692;53.714;11.372;2022-11-15T12:19:36;100524.97;;;12.03;92.67
61786;BME280;47692;53.714;11.372;2022-11-15T12:22:12;100525.50;;;12.41;91.17
61786;BME280;47692;53.714;11.372;2022-11-15T12:25:05;100525.72;;;12.60;88.95
61786;BME280;47692;53.714;11.372;2022-11-15T12:27:50;100526.50;;;12.37;88.54
61786;BME280;47692;53.714;11.372;2022-11-15T12:30:20;100531.53;;;12.43;88.86
61786;BME280;47692;53.714;11.372;2022-11-15T12:32:59;100530.41;;;12.50;88.29
61786;BME280;47692;53.714;11.372;2022-11-15T12:35:40;100515.47;;;12.54;88.15
61786;BME280;47692;53.714;11.372;2022-11-15T12:38:11;100524.13;;;12.56;87.88
61786;BME280;47692;53.714;11.372;2022-11-15T12:41:24;100514.63;;;12.53;88.31
61786;BME280;47692;53.714;11.372;2022-11-15T12:43:35;100497.41;;;12.46;88.49
61786;BME280;47692;53.714;11.372;2022-11-15T12:46:04;100499.41;;;12.38;89.12
61786;BME280;47692;53.714;11.372;2022-11-15T12:51:02;100506.88;;;12.23;89.50
61786;BME280;47692;53.714;11.372;2022-11-15T12:53:32;100499.94;;;12.22;90.10
61786;BME280;47692;53.714;11.372;2022-11-15T13:12:51;100499.19;;;12.19;91.65
61786;BME280;47692;53.714;11.372;2022-11-15T13:27:47;100494.78;;;12.19;91.40
61786;BME280;47692;53.714;11.372;2022-11-15T13:30:19;100498.50;;;12.12;91.60
61786;BME280;47692;53.714;11.372;2022-11-15T13:32:45;100494.19;;;12.11;92.06
61786;BME280;47692;53.714;11.372;2022-11-15T13:35:23;100493.59;;;12.03;92.22
61786;BME280;47692;53.714;11.372;2022-11-15T13:37:50;100487.41;;;12.05;92.49
61786;BME280;47692;53.714;11.372;2022-11-15T13:42:47;100481.69;;;11.92;92.70
61786;BME280;47692;53.714;11.372;2022-11-15T13:45:17;100480.16;;;11.85;92.48
61786;BME280;47692;53.714;11.372;2022-11-15T13:47:43;100476.91;;;11.77;92.81
61786;BME280;47692;53.714;11.372;2022-11-15T13:50:25;100470.16;;;11.70;93.23
61786;BME280;47692;53.714;11.372;2022-11-15T13:52:52;100471.69;;;11.77;92.96
61786;BME280;47692;53.714;11.372;2022-11-15T13:55:20;100463.06;;;11.75;92.45
61786;BME280;47692;53.714;11.372;2022-11-15T13:57:56;100462.44;;;11.67;92.29
61786;BME280;47692;53.714;11.372;2022-11-15T14:00:26;100452.41;;;11.53;93.18
61786;BME280;47692;53.714;11.372;2022-11-15T14:02:54;100447.13;;;11.54;93.44
61786;BME280;47692;53.714;11.372;2022-11-15T14:05:22;100451.16;;;11.36;93.79
61786;BME280;47692;53.714;11.372;2022-11-15T14:08:41;100459.16;;;11.31;94.44
61786;BME280;47692;53.714;11.372;2022-11-15T14:10:41;100451.44;;;11.27;94.41
61786;BME280;47692;53.714;11.372;2022-11-15T14:13:26;100454.09;;;11.25;94.94
61786;BME280;47692;53.714;11.372;2022-11-15T14:15:52;100458.88;;;11.11;95.59
61786;BME280;47692;53.714;11.372;2022-11-15T14:21:08;100466.28;;;10.95;96.21
61786;BME280;47692;53.714;11.372;2022-11-15T14:23:33;100458.75;;;10.84;96.99
61786;BME280;47692;53.714;11.372;2022-11-15T14:25:59;100464.06;;;10.81;97.41
61786;BME280;47692;53.714;11.372;2022-11-15T14:30:54;100460.91;;;10.70;98.37
61786;BME280;47692;53.714;11.372;2022-11-15T14:33:21;100452.25;;;10.67;98.28
61786;BME280;47692;53.714;11.372;2022-11-15T14:35:47;100453.25;;;10.63;98.15